Time;durP1;ratioP1;P1;durP2;ratioP2;P2;SDS_P1;SDS_P2;PMS_P1;PMS_P2;Temp;Humidity;BMP_temperature;BMP_pressure;BME280_temperature;BME280_humidity;BME280_pressure;Samples;Min_cycle;Max_cycle;Signal;HPM_P1;HPM_P2
2022/12/03 00:01:04;;;;;;;0.28;0.20;;;;;;;;;;5002768;28;20705;-89
2022/12/03 00:03:34;;;;;;;0.20;0.10;;;;;;;;;;4997352;28;20388;-86
2022/12/03 00:06:00;;;;;;;0.20;0.10;;;;;;;;;;5003550;28;20041;-90
2022/12/03 00:08:26;;;;;;;1.00;0.55;;;;;;;;;;4997973;28;20561;-88
2022/12/03 00:10:52;;;;;;;0.20;0.10;;;;;;;;;;5008299;28;20106;-88
2022/12/03 00:13:18;;;;;;;0.20;0.20;;;;;;;;;;4997215;28;20048;-87
2022/12/03 00:15:44;;;;;;;0.20;0.10;;;;;;;;;;4994317;28;20500;-89
2022/12/03 00:18:11;;;;;;;0.20;0.10;;;;;;;;;;4997106;28;20436;-88
2022/12/03 00:20:37;;;;;;;0.20;0.10;;;;;;;;;;5001098;28;20324;-86
2022/12/03 00:23:03;;;;;;;0.32;0.25;;;;;;;;;;5007484;28;20063;-87
2022/12/03 00:25:29;;;;;;;0.45;0.25;;;;;;;;;;5021922;28;20275;-85
2022/12/03 00:27:55;;;;;;;0.20;0.10;;;;;;;;;;5012680;28;20510;-87
2022/12/03 00:30:21;;;;;;;0.20;0.10;;;;;;;;;;4990507;28;20511;-88
2022/12/03 00:32:47;;;;;;;0.20;0.10;;;;;;;;;;4986551;28;20068;-87
2022/12/03 00:35:13;;;;;;;0.20;0.10;;;;;;;;;;5002521;28;20041;-89
2022/12/03 00:37:39;;;;;;;0.20;0.10;;;;;;;;;;5010081;28;20089;-87
2022/12/03 00:40:06;;;;;;;0.20;0.10;;;;;;;;;;5006111;28;20044;-83
2022/12/03 00:42:32;;;;;;;0.30;0.30;;;;;;;;;;5006882;28;20037;-87
2022/12/03 00:44:58;;;;;;;0.20;0.10;;;;;;;;;;5006310;28;20040;-87
2022/12/03 00:47:24;;;;;;;0.20;0.10;;;;;;;;;;4993543;28;20045;-84
2022/12/03 00:49:50;;;;;;;0.28;0.28;;;;;;;;;;4986239;28;20037;-85
2022/12/03 00:52:16;;;;;;;0.20;0.20;;;;;;;;;;5018677;28;20114;-86
2022/12/03 00:54:42;;;;;;;0.20;0.20;;;;;;;;;;5003000;28;20614;-87
2022/12/03 00:57:08;;;;;;;0.20;0.10;;;;;;;;;;5005096;28;20128;-86
2022/12/03 00:59:34;;;;;;;0.63;0.52;;;;;;;;;;5000744;28;20041;-89
2022/12/03 01:02:00;;;;;;;0.30;0.30;;;;;;;;;;4997499;28;20136;-88
2022/12/03 01:04:26;;;;;;;0.20;0.10;;;;;;;;;;4989012;28;20045;-87
2022/12/03 01:06:52;;;;;;;0.20;0.10;;;;;;;;;;4983721;28;20041;-86
2022/12/03 01:09:18;;;;;;;0.20;0.10;;;;;;;;;;5005438;28;20098;-88
2022/12/03 01:11:44;;;;;;;0.20;0.10;;;;;;;;;;4996646;28;20041;-88
2022/12/03 01:14:12;;;;;;;4.38;2.25;;;;;;;;;;5006816;28;20067;-87
2022/12/03 01:16:38;;;;;;;0.20;0.10;;;;;;;;;;5009345;28;20044;-88
2022/12/03 01:19:05;;;;;;;0.85;0.85;;;;;;;;;;5011957;28;20092;-86
2022/12/03 01:21:32;;;;;;;0.20;0.20;;;;;;;;;;5005267;28;21665;-84
2022/12/03 01:23:59;;;;;;;0.55;0.32;;;;;;;;;;5005903;28;20043;-87
2022/12/03 01:26:25;;;;;;;0.20;0.13;;;;;;;;;;5023707;28;20037;-84
2022/12/03 01:28:52;;;;;;;0.20;0.10;;;;;;;;;;4998763;28;20445;-85
2022/12/03 01:34:03;;;;;;;0.20;0.10;;;;;;;;;;5000194;28;20048;-87
2022/12/03 01:36:29;;;;;;;0.47;0.47;;;;;;;;;;5006240;28;20455;-89
2022/12/03 01:38:55;;;;;;;0.20;0.10;;;;;;;;;;5011113;28;20555;-85
2022/12/03 01:41:23;;;;;;;0.20;0.17;;;;;;;;;;5017824;28;20072;-85
2022/12/03 01:43:49;;;;;;;0.45;0.45;;;;;;;;;;5007040;28;20515;-87
2022/12/03 01:46:17;;;;;;;0.30;0.22;;;;;;;;;;5019951;28;21469;-85
2022/12/03 01:48:44;;;;;;;0.20;0.10;;;;;;;;;;5021579;28;20042;-84
2022/12/03 01:51:12;;;;;;;0.20;0.10;;;;;;;;;;5008021;28;20064;-88
2022/12/03 01:53:38;;;;;;;2.72;1.15;;;;;;;;;;5006203;28;20044;-90
2022/12/03 01:56:04;;;;;;;0.20;0.10;;;;;;;;;;5009429;28;21037;-86
2022/12/03 01:58:30;;;;;;;0.20;0.20;;;;;;;;;;5018047;28;20036;-86
2022/12/03 02:01:04;;;;;;;0.20;0.20;;;;;;;;;;5001842;28;20036;-86
2022/12/03 02:03:30;;;;;;;0.20;0.10;;;;;;;;;;4996804;28;20060;-86
2022/12/03 02:05:56;;;;;;;0.82;0.82;;;;;;;;;;5016455;28;20096;-86
2022/12/03 02:08:29;;;;;;;2.08;0.47;;;;;;;;;;5018845;28;20037;-85
2022/12/03 02:10:56;;;;;;;0.45;0.45;;;;;;;;;;4989300;28;20076;-85
2022/12/03 02:13:22;;;;;;;0.20;0.15;;;;;;;;;;5017925;28;20072;-87
2022/12/03 02:15:48;;;;;;;0.20;0.20;;;;;;;;;;5004721;28;20111;-86
2022/12/03 02:18:14;;;;;;;0.20;0.10;;;;;;;;;;5002110;28;20841;-86
2022/12/03 02:20:46;;;;;;;0.20;0.10;;;;;;;;;;5001683;28;20038;-85
2022/12/03 02:23:21;;;;;;;0.20;0.10;;;;;;;;;;4999092;28;20063;-85
2022/12/03 02:25:47;;;;;;;0.32;0.32;;;;;;;;;;4981855;28;20037;-86
2022/12/03 02:28:13;;;;;;;0.30;0.30;;;;;;;;;;4986536;28;20173;-86
2022/12/03 02:30:39;;;;;;;0.20;0.20;;;;;;;;;;5010452;28;20068;-86
2022/12/03 02:33:05;;;;;;;0.20;0.10;;;;;;;;;;5000079;28;20051;-86
2022/12/03 02:35:33;;;;;;;0.77;0.73;;;;;;;;;;4995411;28;20037;-86
2022/12/03 02:38:05;;;;;;;0.20;0.20;;;;;;;;;;5004021;28;20492;-86
2022/12/03 02:40:32;;;;;;;0.50;0.47;;;;;;;;;;5007286;28;20616;-86
2022/12/03 02:42:59;;;;;;;0.20;0.10;;;;;;;;;;4982155;28;20698;-85
2022/12/03 02:45:27;;;;;;;0.40;0.40;;;;;;;;;;4997047;28;20040;-86
2022/12/03 02:47:53;;;;;;;0.45;0.35;;;;;;;;;;4990536;28;20519;-86
2022/12/03 02:50:21;;;;;;;0.20;0.10;;;;;;;;;;4999701;28;20641;-86
2022/12/03 02:52:47;;;;;;;0.20;0.10;;;;;;;;;;4999500;28;20040;-86
2022/12/03 02:55:14;;;;;;;0.20;0.20;;;;;;;;;;5019000;28;20033;-86
2022/12/03 02:57:40;;;;;;;0.20;0.10;;;;;;;;;;5006871;28;20033;-86
2022/12/03 03:00:08;;;;;;;0.20;0.10;;;;;;;;;;5003906;28;20461;-85
2022/12/03 03:02:36;;;;;;;0.20;0.10;;;;;;;;;;5006335;28;21237;-86
2022/12/03 03:05:02;;;;;;;0.20;0.10;;;;;;;;;;5023615;28;20030;-85
2022/12/03 03:07:28;;;;;;;0.73;0.32;;;;;;;;;;5007834;28;20276;-86
2022/12/03 03:09:55;;;;;;;0.28;0.28;;;;;;;;;;5020470;28;20486;-87
2022/12/03 03:12:21;;;;;;;0.28;0.25;;;;;;;;;;4994826;28;20962;-86
2022/12/03 03:14:47;;;;;;;0.20;0.10;;;;;;;;;;5002992;28;20547;-86
2022/12/03 03:17:13;;;;;;;0.20;0.10;;;;;;;;;;4988497;28;20306;-89
2022/12/03 03:19:39;;;;;;;0.20;0.10;;;;;;;;;;5023975;28;20033;-86
2022/12/03 03:22:05;;;;;;;0.20;0.20;;;;;;;;;;5026310;28;20040;-87
2022/12/03 03:24:32;;;;;;;0.40;0.30;;;;;;;;;;4997916;28;20488;-87
2022/12/03 03:26:58;;;;;;;0.20;0.10;;;;;;;;;;4993413;28;20038;-86
2022/12/03 03:29:24;;;;;;;0.30;0.30;;;;;;;;;;5014924;28;21519;-86
2022/12/03 03:31:50;;;;;;;0.20;0.10;;;;;;;;;;5000272;28;20506;-87
2022/12/03 03:34:16;;;;;;;0.20;0.10;;;;;;;;;;4983631;28;20965;-86
2022/12/03 03:36:43;;;;;;;0.20;0.10;;;;;;;;;;4985903;28;20033;-87
2022/12/03 03:39:09;;;;;;;0.20;0.10;;;;;;;;;;4985958;28;20029;-86
2022/12/03 03:41:35;;;;;;;0.20;0.10;;;;;;;;;;4991786;28;20098;-87
2022/12/03 03:44:03;;;;;;;0.20;0.10;;;;;;;;;;4999016;28;20555;-86
2022/12/03 03:46:31;;;;;;;0.20;0.10;;;;;;;;;;5016833;28;20147;-86
2022/12/03 03:48:58;;;;;;;0.20;0.10;;;;;;;;;;4981118;28;20119;-87
2022/12/03 03:51:24;;;;;;;0.20;0.10;;;;;;;;;;5010717;28;20114;-87
2022/12/03 03:53:51;;;;;;;0.30;0.30;;;;;;;;;;5021026;28;20047;-86
2022/12/03 03:56:18;;;;;;;0.20;0.10;;;;;;;;;;4999511;28;20053;-86
2022/12/03 03:58:44;;;;;;;0.20;0.10;;;;;;;;;;5000177;28;20236;-86
2022/12/03 04:01:11;;;;;;;0.20;0.10;;;;;;;;;;5016645;28;20029;-86
2022/12/03 04:03:37;;;;;;;0.20;0.10;;;;;;;;;;5017265;28;20328;-86
2022/12/03 04:06:04;;;;;;;0.20;0.10;;;;;;;;;;5000854;28;20033;-86
2022/12/03 04:08:30;;;;;;;0.20;0.10;;;;;;;;;;5019989;28;20045;-86
2022/12/03 04:13:45;;;;;;;0.20;0.10;;;;;;;;;;4975199;28;20087;-86
2022/12/03 04:16:13;;;;;;;0.20;0.10;;;;;;;;;;5003131;28;20116;-86
2022/12/03 04:18:42;;;;;;;0.20;0.10;;;;;;;;;;5001540;28;20056;-86
2022/12/03 04:23:54;;;;;;;0.20;0.10;;;;;;;;;;5020377;28;20059;-85
2022/12/03 04:29:04;;;;;;;0.20;0.10;;;;;;;;;;4997083;28;20038;-86
2022/12/03 04:37:00;;;;;;;0.20;0.10;;;;;;;;;;4996404;28;20052;-86
2022/12/03 04:39:26;;;;;;;0.20;0.10;;;;;;;;;;4994514;28;21174;-85
2022/12/03 04:41:52;;;;;;;0.20;0.10;;;;;;;;;;4999136;28;20033;-86
2022/12/03 04:44:36;;;;;;;0.20;0.10;;;;;;;;;;5000838;28;20195;-86
2022/12/03 04:47:07;;;;;;;0.20;0.10;;;;;;;;;;5004184;28;20325;-85
2022/12/03 04:49:34;;;;;;;0.20;0.10;;;;;;;;;;5018869;28;20261;-87
2022/12/03 04:52:00;;;;;;;0.45;0.45;;;;;;;;;;5000066;28;20041;-86
2022/12/03 04:54:27;;;;;;;0.20;0.10;;;;;;;;;;5008155;28;20140;-88
2022/12/03 04:56:53;;;;;;;0.20;0.10;;;;;;;;;;4992532;28;20164;-86
2022/12/03 04:59:19;;;;;;;0.20;0.20;;;;;;;;;;5020721;28;20037;-86
2022/12/03 05:01:45;;;;;;;1.55;1.45;;;;;;;;;;5021880;28;20496;-85
2022/12/03 05:04:12;;;;;;;0.30;0.30;;;;;;;;;;4991768;28;20417;-86
2022/12/03 05:06:38;;;;;;;0.25;0.15;;;;;;;;;;5002207;28;20115;-86
2022/12/03 05:09:04;;;;;;;0.20;0.10;;;;;;;;;;5005743;28;20159;-86
2022/12/03 05:11:30;;;;;;;0.30;0.30;;;;;;;;;;5021599;28;20070;-88
2022/12/03 05:13:56;;;;;;;0.20;0.10;;;;;;;;;;4997155;28;20471;-87
2022/12/03 05:16:22;;;;;;;0.32;0.32;;;;;;;;;;5015180;28;21563;-86
2022/12/03 05:18:49;;;;;;;0.20;0.10;;;;;;;;;;4993887;28;20146;-88
2022/12/03 05:21:15;;;;;;;0.73;0.65;;;;;;;;;;5008490;28;20044;-86
2022/12/03 05:23:41;;;;;;;0.20;0.20;;;;;;;;;;5003590;28;20047;-87
2022/12/03 05:26:07;;;;;;;0.20;0.20;;;;;;;;;;5001867;28;20110;-85
2022/12/03 05:28:33;;;;;;;0.20;0.10;;;;;;;;;;4996755;28;20045;-87
2022/12/03 05:30:59;;;;;;;0.20;0.20;;;;;;;;;;4986660;28;20130;-87
2022/12/03 05:33:25;;;;;;;0.20;0.10;;;;;;;;;;4983473;28;20333;-87
2022/12/03 05:35:51;;;;;;;0.20;0.10;;;;;;;;;;4990258;28;20067;-88
2022/12/03 05:38:18;;;;;;;0.20;0.10;;;;;;;;;;5004119;28;20037;-86
2022/12/03 05:40:44;;;;;;;0.20;0.10;;;;;;;;;;5011678;28;20407;-87
2022/12/03 05:43:10;;;;;;;0.20;0.10;;;;;;;;;;5000377;28;20034;-88
2022/12/03 05:45:37;;;;;;;0.20;0.10;;;;;;;;;;5003222;28;20500;-86
2022/12/03 05:48:04;;;;;;;0.20;0.10;;;;;;;;;;5002301;28;20056;-88
2022/12/03 05:50:31;;;;;;;1.38;1.27;;;;;;;;;;5028164;22;20088;-87
2022/12/03 05:52:57;;;;;;;0.20;0.10;;;;;;;;;;5007199;28;20052;-86
2022/12/03 05:55:24;;;;;;;0.20;0.10;;;;;;;;;;5001926;28;20117;-87
2022/12/03 05:57:50;;;;;;;0.20;0.10;;;;;;;;;;5024860;28;20033;-85
2022/12/03 06:00:27;;;;;;;0.20;0.10;;;;;;;;;;4982022;28;20052;-86
2022/12/03 06:02:53;;;;;;;0.20;0.10;;;;;;;;;;5007485;28;20040;-86
2022/12/03 06:05:19;;;;;;;0.45;0.40;;;;;;;;;;5009045;28;20044;-87
2022/12/03 06:07:46;;;;;;;0.20;0.10;;;;;;;;;;4999631;28;20989;-85
2022/12/03 06:10:13;;;;;;;0.20;0.10;;;;;;;;;;4994740;28;20044;-88
2022/12/03 06:12:39;;;;;;;0.20;0.17;;;;;;;;;;4997842;28;20045;-87
2022/12/03 06:15:06;;;;;;;0.38;0.38;;;;;;;;;;5001843;28;20131;-86
2022/12/03 06:17:32;;;;;;;0.20;0.10;;;;;;;;;;5023364;28;20373;-86
2022/12/03 06:19:58;;;;;;;0.20;0.20;;;;;;;;;;5031379;28;20048;-88
2022/12/03 06:22:24;;;;;;;0.22;0.22;;;;;;;;;;5005443;28;20044;-87
2022/12/03 06:24:50;;;;;;;0.20;0.10;;;;;;;;;;5007792;28;20064;-84
2022/12/03 06:27:17;;;;;;;0.20;0.20;;;;;;;;;;5001843;28;20111;-87
2022/12/03 06:29:43;;;;;;;0.25;0.17;;;;;;;;;;4996511;28;20063;-84
2022/12/03 06:32:09;;;;;;;0.20;0.10;;;;;;;;;;4971991;28;20039;-86
2022/12/03 06:34:35;;;;;;;0.20;0.10;;;;;;;;;;4998804;28;20466;-86
2022/12/03 06:37:01;;;;;;;0.20;0.15;;;;;;;;;;5029810;28;20526;-84
2022/12/03 06:39:27;;;;;;;0.20;0.13;;;;;;;;;;5002934;28;20040;-88
2022/12/03 06:41:53;;;;;;;0.93;0.25;;;;;;;;;;4979475;28;20491;-86
2022/12/03 06:44:25;;;;;;;0.20;0.20;;;;;;;;;;4995342;28;20417;-85
2022/12/03 06:46:51;;;;;;;0.90;0.65;;;;;;;;;;4990090;28;20203;-85
2022/12/03 06:49:17;;;;;;;0.20;0.10;;;;;;;;;;4989345;28;20814;-87
2022/12/03 06:51:43;;;;;;;0.20;0.10;;;;;;;;;;5002813;28;20049;-86
2022/12/03 06:54:09;;;;;;;0.20;0.10;;;;;;;;;;5014515;28;20048;-87
2022/12/03 06:56:35;;;;;;;0.20;0.10;;;;;;;;;;4997190;28;20049;-86
2022/12/03 06:59:01;;;;;;;0.32;0.32;;;;;;;;;;5012710;28;20144;-87
2022/12/03 07:01:28;;;;;;;0.20;0.10;;;;;;;;;;4987244;28;20078;-88
2022/12/03 07:03:54;;;;;;;0.22;0.22;;;;;;;;;;4974663;28;20044;-86
2022/12/03 07:06:20;;;;;;;0.20;0.10;;;;;;;;;;4998167;28;20053;-88
2022/12/03 07:08:46;;;;;;;0.20;0.10;;;;;;;;;;5006310;28;20041;-88
2022/12/03 07:11:30;;;;;;;0.20;0.10;;;;;;;;;;5021581;28;20037;-88
2022/12/03 07:13:57;;;;;;;0.20;0.10;;;;;;;;;;5017760;28;20049;-88
2022/12/03 07:16:23;;;;;;;0.20;0.10;;;;;;;;;;5001109;28;20070;-88
2022/12/03 07:18:49;;;;;;;0.20;0.10;;;;;;;;;;5001004;28;20052;-87
2022/12/03 07:21:15;;;;;;;0.20;0.10;;;;;;;;;;5002605;28;20037;-88
2022/12/03 07:23:42;;;;;;;0.20;0.20;;;;;;;;;;5020371;28;20044;-87
2022/12/03 07:26:08;;;;;;;0.20;0.10;;;;;;;;;;4981714;28;20387;-88
2022/12/03 07:28:34;;;;;;;0.20;0.10;;;;;;;;;;5010165;28;20045;-87
2022/12/03 07:31:00;;;;;;;0.20;0.10;;;;;;;;;;4999957;28;20040;-88
2022/12/03 07:33:26;;;;;;;0.20;0.10;;;;;;;;;;5027514;28;20037;-86
2022/12/03 07:35:52;;;;;;;0.20;0.10;;;;;;;;;;4999830;28;20061;-89
2022/12/03 07:38:18;;;;;;;0.20;0.10;;;;;;;;;;5012595;28;20045;-88
2022/12/03 07:40:44;;;;;;;1.40;1.30;;;;;;;;;;4996765;28;20164;-87
2022/12/03 07:43:10;;;;;;;0.20;0.10;;;;;;;;;;4992003;28;20044;-87
2022/12/03 07:45:37;;;;;;;0.20;0.10;;;;;;;;;;5007305;28;20053;-87
2022/12/03 07:48:03;;;;;;;0.35;0.28;;;;;;;;;;5010505;28;20044;-88
2022/12/03 07:50:29;;;;;;;0.38;0.30;;;;;;;;;;5034563;28;20037;-89
2022/12/03 07:52:55;;;;;;;0.30;0.30;;;;;;;;;;5031069;28;20483;-88
2022/12/03 07:55:23;;;;;;;5.38;0.90;;;;;;;;;;5007908;28;20041;-88
2022/12/03 07:57:49;;;;;;;0.20;0.13;;;;;;;;;;4994417;28;20048;-87
2022/12/03 08:00:15;;;;;;;0.20;0.20;;;;;;;;;;5002978;28;20140;-89
2022/12/03 08:02:41;;;;;;;0.35;0.20;;;;;;;;;;4992211;28;20059;-88
2022/12/03 08:05:08;;;;;;;1.10;0.75;;;;;;;;;;4996959;28;20040;-89
2022/12/03 08:07:34;;;;;;;0.25;0.17;;;;;;;;;;5041300;28;20044;-87
2022/12/03 08:10:00;;;;;;;0.20;0.10;;;;;;;;;;5019420;28;20037;-87
2022/12/03 08:12:39;;;;;;;0.20;0.10;;;;;;;;;;5020869;28;20058;-87
2022/12/03 08:15:13;;;;;;;0.20;0.10;;;;;;;;;;5037168;28;20968;-87
2022/12/03 08:17:41;;;;;;;0.20;0.10;;;;;;;;;;5030105;28;20045;-87
2022/12/03 08:20:20;;;;;;;0.28;0.28;;;;;;;;;;4994277;28;20052;-87
2022/12/03 08:22:48;;;;;;;0.85;0.85;;;;;;;;;;5035253;28;20033;-87
2022/12/03 08:25:19;;;;;;;0.35;0.35;;;;;;;;;;5009835;28;20029;-87
2022/12/03 08:27:46;;;;;;;0.20;0.13;;;;;;;;;;4998095;28;20056;-89
2022/12/03 08:30:13;;;;;;;0.20;0.10;;;;;;;;;;4996747;28;20045;-89
2022/12/03 08:32:42;;;;;;;0.20;0.10;;;;;;;;;;5011218;28;20052;-89
2022/12/03 08:35:30;;;;;;;0.20;0.10;;;;;;;;;;5014879;28;20488;-88
2022/12/03 08:38:09;;;;;;;0.20;0.10;;;;;;;;;;4998773;28;20072;-87
2022/12/03 08:40:35;;;;;;;0.20;0.10;;;;;;;;;;5031168;28;20150;-87
2022/12/03 08:43:01;;;;;;;0.20;0.10;;;;;;;;;;5012477;28;20033;-88
2022/12/03 08:45:30;;;;;;;0.20;0.20;;;;;;;;;;5008759;28;20458;-87
2022/12/03 08:47:58;;;;;;;0.60;0.57;;;;;;;;;;5003740;28;20072;-87
2022/12/03 08:50:24;;;;;;;0.20;0.10;;;;;;;;;;5009508;28;20048;-87
2022/12/03 08:52:50;;;;;;;0.20;0.10;;;;;;;;;;4999119;28;20040;-87
2022/12/03 08:55:31;;;;;;;1.30;1.25;;;;;;;;;;4979744;28;20048;-87
2022/12/03 08:57:58;;;;;;;0.35;0.32;;;;;;;;;;5028191;28;20075;-88
2022/12/03 09:00:24;;;;;;;0.20;0.10;;;;;;;;;;5004810;28;20040;-90
2022/12/03 09:02:51;;;;;;;0.20;0.10;;;;;;;;;;5009530;28;20037;-87
2022/12/03 09:05:21;;;;;;;0.20;0.20;;;;;;;;;;4984814;28;20037;-90
2022/12/03 09:07:47;;;;;;;0.30;0.17;;;;;;;;;;5019637;28;20466;-90
2022/12/03 09:10:14;;;;;;;0.25;0.25;;;;;;;;;;5027831;28;20142;-90
2022/12/03 09:22:00;;;;;;;0.20;0.10;;;;;;;;;;5057347;28;20045;-83
2022/12/03 09:24:26;;;;;;;0.40;0.40;;;;;;;;;;5021408;28;20205;-83
2022/12/03 09:26:52;;;;;;;0.30;0.30;;;;;;;;;;5042940;28;20040;-83
2022/12/03 09:29:19;;;;;;;0.20;0.10;;;;;;;;;;5014265;22;20052;-80
2022/12/03 09:31:45;;;;;;;0.30;0.30;;;;;;;;;;5026017;28;20079;-81
2022/12/03 09:34:11;;;;;;;0.55;0.55;;;;;;;;;;5031531;28;20093;-81
2022/12/03 09:36:37;;;;;;;0.20;0.20;;;;;;;;;;5021971;28;20032;-81
2022/12/03 09:39:03;;;;;;;0.20;0.10;;;;;;;;;;5036168;28;20048;-79
2022/12/03 09:41:29;;;;;;;0.20;0.10;;;;;;;;;;5038064;28;20033;-81
2022/12/03 09:43:55;;;;;;;0.20;0.10;;;;;;;;;;5021711;28;20064;-83
2022/12/03 09:46:22;;;;;;;0.20;0.20;;;;;;;;;;5035142;28;20036;-80
2022/12/03 09:48:48;;;;;;;0.20;0.10;;;;;;;;;;5022025;28;20473;-80
2022/12/03 09:51:14;;;;;;;0.20;0.10;;;;;;;;;;5032410;28;20048;-80
2022/12/03 09:53:40;;;;;;;0.20;0.20;;;;;;;;;;5031049;28;20044;-80
2022/12/03 09:56:09;;;;;;;0.20;0.10;;;;;;;;;;5035100;28;20608;-80
2022/12/03 09:58:35;;;;;;;0.20;0.10;;;;;;;;;;5039519;28;20045;-80
2022/12/03 10:01:01;;;;;;;0.20;0.10;;;;;;;;;;5031614;28;20047;-80
2022/12/03 10:03:46;;;;;;;0.20;0.10;;;;;;;;;;4991569;28;20052;-79
2022/12/03 10:06:15;;;;;;;0.20;0.10;;;;;;;;;;5024298;28;20401;-80
2022/12/03 10:08:41;;;;;;;0.80;0.80;;;;;;;;;;5022286;28;20119;-80
2022/12/03 10:11:07;;;;;;;4.28;2.30;;;;;;;;;;5021629;28;20086;-80
2022/12/03 10:13:36;;;;;;;0.20;0.10;;;;;;;;;;5034190;28;20048;-80
2022/12/03 10:16:02;;;;;;;0.20;0.10;;;;;;;;;;5052677;28;20050;-80
2022/12/03 10:18:30;;;;;;;0.20;0.10;;;;;;;;;;5015982;28;20052;-81
2022/12/03 10:20:56;;;;;;;0.20;0.10;;;;;;;;;;5038060;28;20068;-78
2022/12/03 10:23:26;;;;;;;0.43;0.43;;;;;;;;;;5035132;28;20514;-80
2022/12/03 10:25:57;;;;;;;0.38;0.38;;;;;;;;;;5049388;28;20090;-81
2022/12/03 10:28:43;;;;;;;0.20;0.10;;;;;;;;;;5022999;28;20040;-80
2022/12/03 10:31:10;;;;;;;2.83;0.73;;;;;;;;;;5030275;28;20109;-80
2022/12/03 10:33:41;;;;;;;0.20;0.13;;;;;;;;;;5036195;28;20055;-80
2022/12/03 10:36:15;;;;;;;0.30;0.30;;;;;;;;;;5016421;28;20048;-79
2022/12/03 10:38:41;;;;;;;0.20;0.10;;;;;;;;;;5048415;28;20045;-80
2022/12/03 10:41:40;;;;;;;0.30;0.25;;;;;;;;;;5038230;28;20400;-80
2022/12/03 10:44:12;;;;;;;0.20;0.10;;;;;;;;;;4969371;28;20136;-80
2022/12/03 10:46:38;;;;;;;0.20;0.10;;;;;;;;;;5024600;28;20416;-79
2022/12/03 10:49:09;;;;;;;0.20;0.10;;;;;;;;;;5040888;28;20048;-80
2022/12/03 10:51:35;;;;;;;0.20;0.10;;;;;;;;;;5009371;28;20127;-80
2022/12/03 10:54:02;;;;;;;0.20;0.10;;;;;;;;;;5024638;28;20037;-81
2022/12/03 10:56:28;;;;;;;0.20;0.10;;;;;;;;;;5029925;28;20033;-80
2022/12/03 10:58:54;;;;;;;0.32;0.32;;;;;;;;;;5029722;28;20079;-81
2022/12/03 11:01:21;;;;;;;0.20;0.10;;;;;;;;;;5015460;28;20044;-80
2022/12/03 11:03:47;;;;;;;0.80;0.68;;;;;;;;;;5018887;28;20044;-79
2022/12/03 11:06:15;;;;;;;0.20;0.10;;;;;;;;;;5043648;28;20032;-81
2022/12/03 11:08:43;;;;;;;0.20;0.20;;;;;;;;;;5032740;28;20064;-80
2022/12/03 11:11:19;;;;;;;0.20;0.20;;;;;;;;;;5032390;28;22010;-82
2022/12/03 11:13:47;;;;;;;0.28;0.25;;;;;;;;;;5047044;28;20531;-82
2022/12/03 11:16:14;;;;;;;0.20;0.20;;;;;;;;;;5025180;28;20049;-81
2022/12/03 11:18:40;;;;;;;0.30;0.30;;;;;;;;;;5051895;28;20044;-80
2022/12/03 11:21:07;;;;;;;0.38;0.38;;;;;;;;;;5036132;28;20040;-81
2022/12/03 11:23:46;;;;;;;0.45;0.45;;;;;;;;;;5035154;28;20033;-82
2022/12/03 11:26:12;;;;;;;4.05;1.85;;;;;;;;;;5037162;28;20033;-82
2022/12/03 11:28:55;;;;;;;2.25;1.23;;;;;;;;;;5023618;28;20040;-80
2022/12/03 11:31:40;;;;;;;0.38;0.32;;;;;;;;;;5037399;28;20037;-79
2022/12/03 11:34:18;;;;;;;0.52;0.52;;;;;;;;;;5041964;28;20074;-80
2022/12/03 11:37:03;;;;;;;0.20;0.10;;;;;;;;;;5056694;28;20033;-81
2022/12/03 11:39:44;;;;;;;4.72;2.20;;;;;;;;;;5051091;28;20082;-79
2022/12/03 11:42:25;;;;;;;0.20;0.10;;;;;;;;;;5036645;28;20032;-81
2022/12/03 11:45:09;;;;;;;0.20;0.10;;;;;;;;;;5020839;28;20029;-82
2022/12/03 11:47:54;;;;;;;0.20;0.10;;;;;;;;;;5038182;28;20052;-80
2022/12/03 11:50:21;;;;;;;0.20;0.10;;;;;;;;;;5029176;28;20037;-82
2022/12/03 11:52:49;;;;;;;0.20;0.20;;;;;;;;;;5032015;28;20041;-80
2022/12/03 11:55:16;;;;;;;0.50;0.50;;;;;;;;;;5035780;28;20551;-81
2022/12/03 11:57:42;;;;;;;0.20;0.10;;;;;;;;;;5023823;28;20040;-81
2022/12/03 12:00:14;;;;;;;0.20;0.10;;;;;;;;;;5035504;28;20041;-80
2022/12/03 12:02:40;;;;;;;0.20;0.10;;;;;;;;;;5030422;28;20506;-81
2022/12/03 12:05:17;;;;;;;0.20;0.20;;;;;;;;;;5038428;28;20044;-81
2022/12/03 12:07:46;;;;;;;0.20;0.10;;;;;;;;;;5036127;28;20364;-80
2022/12/03 12:10:12;;;;;;;0.20;0.10;;;;;;;;;;5029495;28;20048;-79
2022/12/03 12:12:40;;;;;;;0.50;0.35;;;;;;;;;;5047066;28;20064;-81
2022/12/03 12:15:25;;;;;;;0.35;0.30;;;;;;;;;;5034341;28;20052;-80
2022/12/03 12:17:51;;;;;;;0.20;0.10;;;;;;;;;;5032698;28;20498;-81
2022/12/03 12:20:20;;;;;;;0.95;0.38;;;;;;;;;;5032544;28;20041;-79
2022/12/03 12:22:46;;;;;;;0.20;0.10;;;;;;;;;;5047687;28;20051;-81
2022/12/03 12:25:27;;;;;;;0.20;0.10;;;;;;;;;;5052135;28;20036;-80
2022/12/03 12:27:54;;;;;;;0.20;0.10;;;;;;;;;;5046431;28;20075;-80
2022/12/03 12:30:21;;;;;;;5.47;2.58;;;;;;;;;;5030429;28;20059;-79
2022/12/03 12:32:51;;;;;;;0.25;0.25;;;;;;;;;;5046478;28;20520;-79
2022/12/03 12:35:17;;;;;;;0.57;0.43;;;;;;;;;;5042178;28;20041;-80
2022/12/03 12:37:49;;;;;;;0.20;0.10;;;;;;;;;;5042617;28;20033;-81
2022/12/03 12:40:16;;;;;;;0.30;0.30;;;;;;;;;;5041822;28;20590;-80
2022/12/03 12:42:47;;;;;;;0.35;0.35;;;;;;;;;;5041976;28;20040;-80
2022/12/03 12:45:16;;;;;;;0.20;0.10;;;;;;;;;;5044720;28;20063;-81
2022/12/03 12:47:48;;;;;;;0.20;0.10;;;;;;;;;;5041661;28;20423;-80
2022/12/03 12:50:14;;;;;;;0.20;0.10;;;;;;;;;;5038557;28;20059;-80
2022/12/03 12:52:47;;;;;;;0.20;0.10;;;;;;;;;;5048772;28;20044;-80
2022/12/03 12:55:15;;;;;;;0.20;0.13;;;;;;;;;;5029213;28;20037;-80
2022/12/03 12:57:41;;;;;;;0.25;0.25;;;;;;;;;;5042362;28;20032;-79
2022/12/03 13:00:13;;;;;;;0.20;0.10;;;;;;;;;;5011842;28;20526;-81
2022/12/03 13:02:43;;;;;;;0.20;0.15;;;;;;;;;;5025492;28;20047;-81
2022/12/03 13:05:10;;;;;;;1.25;1.15;;;;;;;;;;5050760;28;20047;-81
2022/12/03 13:07:36;;;;;;;0.35;0.35;;;;;;;;;;5036141;28;20056;-80
2022/12/03 13:10:19;;;;;;;0.35;0.20;;;;;;;;;;5039045;28;20530;-80
2022/12/03 13:12:45;;;;;;;0.20;0.10;;;;;;;;;;5021992;28;20033;-80
2022/12/03 13:15:30;;;;;;;0.60;0.60;;;;;;;;;;5023955;28;20036;-81
2022/12/03 13:17:56;;;;;;;0.35;0.32;;;;;;;;;;5009242;28;20123;-81
2022/12/03 13:20:22;;;;;;;0.20;0.20;;;;;;;;;;5021163;28;20040;-81
2022/12/03 13:22:48;;;;;;;0.55;0.50;;;;;;;;;;5021586;28;20044;-81
2022/12/03 13:25:41;;;;;;;1.05;0.95;;;;;;;;;;5033324;28;20082;-78
2022/12/03 13:28:07;;;;;;;0.52;0.52;;;;;;;;;;5029544;28;20095;-77
2022/12/03 13:30:33;;;;;;;0.20;0.10;;;;;;;;;;5017048;28;20051;-80
2022/12/03 13:33:00;;;;;;;1.10;1.00;;;;;;;;;;5022813;28;20041;-80
2022/12/03 13:35:30;;;;;;;0.20;0.10;;;;;;;;;;5048585;28;20078;-80
2022/12/03 13:37:57;;;;;;;4.07;0.57;;;;;;;;;;5042570;28;20410;-82
2022/12/03 13:40:26;;;;;;;0.20;0.10;;;;;;;;;;5034390;28;20075;-79
2022/12/03 13:42:53;;;;;;;0.20;0.10;;;;;;;;;;5043561;28;20115;-81
2022/12/03 13:45:19;;;;;;;0.20;0.10;;;;;;;;;;5023757;28;20036;-81
2022/12/03 13:47:46;;;;;;;0.20;0.10;;;;;;;;;;5038152;28;20044;-81
2022/12/03 13:50:32;;;;;;;0.20;0.10;;;;;;;;;;5032636;28;20033;-83
2022/12/03 13:52:59;;;;;;;0.20;0.10;;;;;;;;;;5022676;28;20037;-81
2022/12/03 13:55:27;;;;;;;0.47;0.47;;;;;;;;;;5057488;28;20049;-80
2022/12/03 13:57:53;;;;;;;0.20;0.10;;;;;;;;;;5029374;28;20036;-80
2022/12/03 14:00:19;;;;;;;0.20;0.10;;;;;;;;;;5033129;28;20371;-80
2022/12/03 14:02:45;;;;;;;0.20;0.10;;;;;;;;;;5038447;28;20071;-81
2022/12/03 14:05:11;;;;;;;3.28;2.13;;;;;;;;;;5027489;28;20068;-83
2022/12/03 14:07:37;;;;;;;0.20;0.10;;;;;;;;;;5037084;28;20106;-79
2022/12/03 14:10:04;;;;;;;0.50;0.47;;;;;;;;;;5021982;28;20503;-81
2022/12/03 14:12:32;;;;;;;0.20;0.20;;;;;;;;;;5038008;28;20461;-81
2022/12/03 14:14:59;;;;;;;0.20;0.13;;;;;;;;;;5040790;28;20105;-79
2022/12/03 14:17:25;;;;;;;0.20;0.20;;;;;;;;;;5055183;28;20044;-81
2022/12/03 14:19:51;;;;;;;0.93;0.90;;;;;;;;;;5043206;28;20078;-81
2022/12/03 14:22:18;;;;;;;0.20;0.20;;;;;;;;;;5046970;28;20045;-83
2022/12/03 14:24:44;;;;;;;0.93;0.90;;;;;;;;;;5027258;28;21146;-81
2022/12/03 14:27:10;;;;;;;0.20;0.10;;;;;;;;;;5048779;28;20147;-81
2022/12/03 14:29:36;;;;;;;0.20;0.10;;;;;;;;;;5057527;28;20121;-81
2022/12/03 14:32:02;;;;;;;0.20;0.10;;;;;;;;;;5021813;28;20036;-79
2022/12/03 14:34:28;;;;;;;0.22;0.15;;;;;;;;;;5039766;28;20041;-81
2022/12/03 14:36:54;;;;;;;0.38;0.25;;;;;;;;;;5059098;28;20434;-82
2022/12/03 14:39:20;;;;;;;0.20;0.10;;;;;;;;;;5057885;28;20043;-80
2022/12/03 14:44:31;;;;;;;0.20;0.10;;;;;;;;;;5041184;28;20063;-78
2022/12/03 14:46:57;;;;;;;0.20;0.15;;;;;;;;;;5029629;28;20479;-80
2022/12/03 14:49:23;;;;;;;0.20;0.10;;;;;;;;;;5039750;28;20029;-80
2022/12/03 14:51:49;;;;;;;0.20;0.10;;;;;;;;;;5052020;28;20747;-80
2022/12/03 14:54:15;;;;;;;0.20;0.10;;;;;;;;;;5018122;28;20070;-81
2022/12/03 14:56:41;;;;;;;0.20;0.10;;;;;;;;;;5020746;28;20171;-80
2022/12/03 14:59:07;;;;;;;0.20;0.10;;;;;;;;;;5035180;28;20090;-77
2022/12/03 15:01:33;;;;;;;0.40;0.40;;;;;;;;;;5024955;28;20120;-78
2022/12/03 15:03:59;;;;;;;0.32;0.32;;;;;;;;;;5031148;28;20467;-80
2022/12/03 15:06:25;;;;;;;0.20;0.10;;;;;;;;;;5013607;28;20337;-81
2022/12/03 15:08:51;;;;;;;0.20;0.10;;;;;;;;;;5021239;28;20040;-81
2022/12/03 15:11:17;;;;;;;0.20;0.10;;;;;;;;;;5033803;28;20078;-78
2022/12/03 15:13:43;;;;;;;0.20;0.20;;;;;;;;;;5032567;28;20124;-80
2022/12/03 15:16:09;;;;;;;1.05;1.05;;;;;;;;;;5027518;28;20032;-81